createdAt,value
2019-03-06T00:01:26.780Z,19.20
2019-03-06T00:03:57.343Z,21.03
2019-03-06T00:06:27.745Z,20.03
2019-03-06T00:08:59.716Z,25.30
2019-03-06T00:11:30.511Z,25.43
2019-03-06T00:14:02.190Z,28.33
2019-03-06T00:16:32.721Z,26.17
2019-03-06T00:19:03.127Z,31.03
2019-03-06T00:21:34.682Z,28.13
2019-03-06T00:24:05.143Z,30.70
2019-03-06T00:26:35.679Z,30.03
2019-03-06T00:29:06.310Z,32.13
2019-03-06T00:31:37.032Z,32.40
2019-03-06T00:34:07.734Z,35.07
2019-03-06T00:36:38.290Z,37.67
2019-03-06T00:39:08.793Z,39.13
2019-03-06T00:41:40.062Z,37.13
2019-03-06T00:44:10.581Z,36.83
2019-03-06T00:46:41.075Z,39.90
2019-03-06T00:49:14.385Z,37.67
2019-03-06T00:51:44.839Z,40.57
2019-03-06T00:54:15.410Z,43.23
2019-03-06T00:56:45.855Z,39.83
2019-03-06T00:59:16.324Z,44.07
2019-03-06T01:01:46.885Z,39.97
2019-03-06T01:04:17.373Z,45.83
2019-03-06T01:06:47.803Z,51.07
2019-03-06T01:09:18.240Z,48.73
2019-03-06T01:11:48.698Z,44.33
2019-03-06T01:14:19.162Z,40.63
2019-03-06T01:16:49.616Z,46.83
2019-03-06T01:22:31.119Z,43.00
2019-03-06T01:25:01.734Z,46.30
2019-03-06T01:27:32.201Z,42.67
2019-03-06T01:30:02.643Z,42.67
2019-03-06T01:32:33.224Z,39.57
2019-03-06T01:35:05.303Z,38.93
2019-03-06T01:37:37.264Z,40.20
2019-03-06T01:40:28.862Z,36.20
2019-03-06T01:43:09.910Z,37.17
2019-03-06T01:45:40.343Z,35.93
2019-03-06T01:48:16.762Z,39.90
2019-03-06T01:51:08.221Z,41.50
2019-03-06T01:53:40.267Z,43.23
2019-03-06T01:56:12.491Z,42.73
2019-03-06T01:58:44.171Z,38.07
2019-03-06T02:01:29.921Z,39.43
2019-03-06T02:04:01.995Z,37.57
2019-03-06T02:06:32.420Z,35.40
2019-03-06T02:09:03.190Z,33.93
2019-03-06T02:12:05.511Z,39.80
2019-03-06T02:14:37.817Z,36.30
2019-03-06T02:19:55.331Z,36.00
2019-03-06T02:22:27.410Z,37.07
2019-03-06T02:24:57.869Z,34.50
2019-03-06T02:27:30.023Z,34.87
2019-03-06T02:30:00.661Z,35.97
2019-03-06T02:32:32.719Z,35.53
2019-03-06T02:35:04.340Z,34.00
2019-03-06T02:37:36.348Z,31.27
2019-03-06T02:40:09.542Z,36.50
2019-03-06T02:42:39.995Z,30.93
2019-03-06T02:45:13.394Z,32.63
2019-03-06T02:47:43.919Z,31.30
2019-03-06T02:50:16.572Z,29.27
2019-03-06T02:52:47.089Z,30.53
2019-03-06T02:55:18.251Z,28.30
2019-03-06T02:57:59.413Z,29.30
2019-03-06T03:00:34.469Z,30.00
2019-03-06T03:03:23.299Z,33.10
2019-03-06T03:06:01.448Z,34.63
2019-03-06T03:08:32.153Z,34.70
2019-03-06T03:11:02.652Z,39.87
2019-03-06T03:13:33.075Z,35.23
2019-03-06T03:16:06.293Z,35.87
2019-03-06T03:18:36.693Z,36.80
2019-03-06T03:21:07.148Z,38.17
2019-03-06T03:23:37.565Z,48.07
2019-03-06T03:26:08.093Z,46.13
2019-03-06T03:28:41.208Z,47.27
2019-03-06T03:31:13.532Z,45.83
2019-03-06T03:33:43.988Z,67.13
2019-03-06T03:36:14.459Z,60.60
2019-03-06T03:38:44.906Z,53.60
2019-03-06T03:41:20.006Z,48.43
2019-03-06T03:43:50.541Z,48.67
2019-03-06T03:46:24.349Z,45.13
2019-03-06T03:48:59.284Z,40.93
2019-03-06T03:51:29.782Z,42.00
2019-03-06T03:54:00.399Z,39.80
2019-03-06T03:56:32.507Z,38.80
2019-03-06T03:59:03.034Z,43.93
2019-03-06T04:01:33.859Z,42.47
2019-03-06T04:04:06.680Z,42.97
2019-03-06T04:06:37.375Z,41.73
2019-03-06T04:09:13.077Z,38.93
2019-03-06T04:11:46.899Z,41.77
2019-03-06T04:14:20.070Z,38.43
2019-03-06T04:16:55.296Z,37.63
2019-03-06T04:20:02.486Z,45.00
2019-03-06T04:22:39.547Z,47.63
2019-03-06T04:25:28.046Z,45.37
2019-03-06T04:27:58.610Z,33.90
2019-03-06T04:30:32.176Z,33.10
2019-03-06T04:33:02.711Z,33.53
2019-03-06T04:35:34.312Z,37.37
2019-03-06T04:38:17.756Z,35.17
2019-03-06T04:40:52.403Z,41.67
2019-03-06T04:43:26.431Z,45.17
2019-03-06T04:46:01.456Z,51.57
2019-03-06T04:48:42.459Z,53.33
2019-03-06T04:51:17.829Z,49.30
2019-03-06T04:53:51.118Z,52.37
2019-03-06T04:56:21.327Z,59.27
2019-03-06T04:59:08.283Z,55.10
2019-03-06T05:01:50.902Z,46.80
2019-03-06T05:04:23.004Z,43.70
2019-03-06T05:10:17.408Z,38.37
2019-03-06T05:12:47.961Z,39.80
2019-03-06T05:15:20.163Z,32.00
2019-03-06T05:18:14.217Z,38.67
2019-03-06T05:20:45.392Z,31.97
2019-03-06T05:23:18.387Z,31.13
2019-03-06T05:25:50.068Z,40.73
2019-03-06T05:28:20.707Z,36.13
2019-03-06T05:30:55.637Z,34.17
2019-03-06T05:33:28.651Z,37.17
2019-03-06T05:36:04.748Z,41.33
2019-03-06T05:38:48.326Z,34.23
2019-03-06T05:41:20.614Z,30.47
2019-03-06T05:43:51.185Z,35.13
2019-03-06T05:46:24.891Z,34.17
2019-03-06T05:48:58.389Z,36.00
2019-03-06T05:51:30.610Z,35.23
2019-03-06T05:54:01.247Z,34.73
2019-03-06T05:56:35.048Z,28.60
2019-03-06T05:59:08.500Z,28.13
2019-03-06T06:01:39.143Z,33.33
2019-03-06T06:04:18.033Z,30.53
2019-03-06T06:06:48.692Z,29.13
2019-03-06T06:09:29.153Z,28.50
2019-03-06T06:11:59.720Z,32.07
2019-03-06T06:14:31.680Z,27.60
2019-03-06T06:17:04.372Z,27.67
2019-03-06T06:19:36.033Z,27.03
2019-03-06T06:22:08.135Z,25.80
2019-03-06T06:24:43.536Z,25.57
2019-03-06T06:27:15.849Z,27.67
2019-03-06T06:29:54.072Z,23.47
2019-03-06T06:32:30.527Z,22.80
2019-03-06T06:35:08.920Z,21.97
2019-03-06T06:37:39.724Z,26.67
2019-03-06T06:40:17.294Z,29.37
2019-03-06T06:42:47.736Z,22.47
2019-03-06T06:45:37.260Z,23.33
2019-03-06T06:48:12.902Z,26.37
2019-03-06T06:51:01.194Z,29.43
2019-03-06T06:53:36.337Z,23.60
2019-03-06T06:56:30.933Z,26.40
2019-03-06T06:59:09.454Z,29.00
2019-03-06T07:01:54.605Z,28.47
2019-03-06T07:04:55.404Z,33.87
2019-03-06T07:07:46.746Z,27.83
2019-03-06T07:10:35.449Z,24.70
2019-03-06T07:13:07.685Z,32.37
2019-03-06T07:15:46.354Z,38.43
2019-03-06T07:18:36.823Z,32.77
2019-03-06T07:21:16.461Z,34.30
2019-03-06T07:24:00.814Z,38.70
2019-03-06T07:26:52.383Z,30.07
2019-03-06T07:29:24.414Z,26.70
2019-03-06T07:31:56.480Z,32.13
2019-03-06T07:34:37.411Z,30.67
2019-03-06T07:37:37.025Z,28.77
2019-03-06T07:40:28.044Z,35.07
2019-03-06T07:43:00.227Z,37.43
2019-03-06T07:45:39.753Z,33.47
2019-03-06T07:48:20.171Z,27.23
2019-03-06T07:50:55.344Z,37.07
2019-03-06T07:54:16.505Z,31.83
2019-03-06T07:56:48.683Z,25.93
2019-03-06T07:59:25.208Z,25.97
2019-03-06T08:02:09.963Z,20.67
2019-03-06T08:04:43.000Z,20.97
2019-03-06T08:07:16.345Z,20.93
2019-03-06T08:10:01.217Z,23.93
2019-03-06T08:13:11.692Z,20.67
2019-03-06T08:15:48.240Z,26.77
2019-03-06T08:18:39.565Z,20.23
2019-03-06T08:21:31.047Z,19.17
2019-03-06T08:24:19.087Z,20.20
2019-03-06T08:27:19.933Z,18.53
2019-03-06T08:29:54.947Z,20.93
2019-03-06T08:32:34.053Z,23.23
2019-03-06T08:35:09.090Z,22.10
2019-03-06T08:37:48.753Z,23.13
2019-03-06T08:40:20.921Z,18.97
2019-03-06T08:43:40.816Z,21.00
2019-03-06T08:45:42.327Z,18.20
2019-03-06T08:48:33.477Z,18.87
2019-03-06T08:51:13.173Z,15.97
2019-03-06T08:54:05.205Z,26.80
2019-03-06T08:57:08.232Z,25.10
2019-03-06T09:00:07.413Z,20.27
2019-03-06T09:03:03.170Z,19.10
2019-03-06T09:06:00.436Z,23.47
2019-03-06T09:08:44.499Z,31.80
2019-03-06T09:11:22.686Z,31.37
2019-03-06T09:14:12.826Z,32.13
2019-03-06T09:17:00.996Z,26.27
2019-03-06T09:19:44.036Z,24.47
2019-03-06T09:22:27.972Z,22.17
2019-03-06T09:25:41.795Z,23.40
2019-03-06T09:28:33.852Z,18.60
2019-03-06T09:31:29.895Z,16.97
2019-03-06T09:34:22.388Z,14.77
2019-03-06T09:37:12.181Z,15.73
2019-03-06T09:39:58.923Z,37.10
2019-03-06T09:45:52.435Z,28.40
2019-03-06T09:48:43.800Z,23.73
2019-03-06T09:55:30.653Z,15.37
2019-03-06T09:58:22.796Z,14.80
2019-03-06T10:01:33.722Z,7.33
2019-03-06T10:04:36.960Z,16.37
2019-03-06T10:07:20.361Z,20.10
2019-03-06T10:13:19.714Z,13.37
2019-03-06T10:16:04.995Z,13.63
2019-03-06T10:18:41.701Z,12.93
2019-03-06T10:21:32.825Z,10.87
2019-03-06T10:24:10.178Z,11.17
2019-03-06T10:26:45.696Z,10.03
2019-03-06T10:39:17.225Z,13.00
2019-03-06T10:45:13.117Z,11.57
2019-03-06T10:51:40.039Z,8.87
2019-03-06T10:55:31.583Z,10.30
2019-03-06T10:57:36.348Z,10.90
2019-03-06T11:05:01.446Z,8.67
2019-03-06T11:07:26.821Z,9.47
2019-03-06T11:10:23.694Z,17.90
2019-03-06T11:13:22.077Z,13.77
2019-03-06T11:16:07.494Z,20.70
2019-03-06T11:24:53.373Z,17.50
2019-03-06T11:27:48.045Z,22.77
2019-03-06T11:30:44.243Z,14.33
2019-03-06T11:36:30.966Z,11.03
2019-03-06T11:39:24.739Z,16.73
2019-03-06T11:42:07.046Z,10.70
2019-03-06T11:44:46.792Z,13.13
2019-03-06T11:50:29.392Z,11.37
2019-03-06T11:52:59.894Z,16.57
2019-03-06T11:55:30.730Z,13.77
2019-03-06T11:58:01.265Z,12.37
2019-03-06T12:03:39.644Z,9.73
2019-03-06T12:06:22.245Z,9.23
2019-03-06T12:09:02.068Z,10.13
2019-03-06T12:11:34.465Z,8.20
2019-03-06T12:14:22.311Z,10.97
2019-03-06T12:17:12.846Z,8.47
2019-03-06T13:27:16.171Z,15.20
2019-03-06T13:33:11.376Z,10.57
2019-03-06T13:50:06.352Z,10.53
2019-03-06T13:57:20.993Z,12.97
2019-03-06T14:05:11.940Z,12.97
2019-03-06T14:08:31.522Z,13.40
2019-03-06T14:14:39.795Z,12.03
2019-03-06T14:20:52.363Z,10.57
2019-03-06T14:26:39.471Z,11.00
2019-03-06T14:29:21.963Z,12.23
2019-03-06T14:32:01.397Z,14.53
2019-03-06T14:34:54.890Z,10.37
2019-03-06T14:37:44.563Z,10.57
2019-03-06T14:44:11.822Z,18.10
2019-03-06T14:47:04.949Z,11.07
2019-03-06T15:13:17.840Z,23.93
2019-03-06T15:15:59.323Z,22.33
2019-03-06T15:24:47.180Z,18.07
2019-03-06T15:27:28.668Z,20.40
2019-03-06T15:33:24.824Z,19.80
2019-03-06T15:36:38.658Z,18.17
2019-03-06T15:39:55.341Z,20.57
2019-03-06T15:42:33.483Z,19.57
2019-03-06T15:48:24.476Z,18.33
2019-03-06T15:51:02.949Z,22.40
2019-03-06T15:53:57.336Z,17.43
2019-03-06T16:48:16.918Z,29.47
2019-03-06T16:51:28.222Z,32.00
2019-03-06T20:31:02.564Z,32.43
2019-03-06T20:33:57.777Z,28.50
2019-03-06T20:46:59.825Z,34.77
2019-03-06T20:50:38.457Z,28.70
2019-03-06T20:52:37.506Z,34.23
2019-03-06T20:55:26.523Z,33.93
2019-03-06T21:04:49.208Z,34.23
2019-03-06T21:17:57.071Z,32.13
2019-03-06T21:30:21.393Z,28.27
2019-03-06T21:39:06.493Z,26.33
2019-03-06T21:44:50.227Z,27.87
2019-03-06T21:48:17.316Z,32.50
2019-03-06T21:50:38.890Z,31.93
2019-03-06T21:53:11.719Z,30.47
2019-03-06T21:55:53.174Z,29.43
2019-03-06T21:58:37.491Z,25.80
2019-03-06T22:07:41.013Z,21.77
2019-03-06T22:16:41.475Z,19.00
2019-03-06T22:22:21.128Z,13.60
2019-03-06T22:28:04.697Z,15.37
2019-03-06T22:30:40.807Z,17.73
2019-03-06T22:33:25.121Z,14.07
2019-03-06T22:38:54.482Z,15.03
2019-03-06T22:44:46.192Z,11.10
2019-03-06T22:47:39.410Z,12.60
2019-03-06T22:50:06.090Z,14.33
2019-03-06T22:52:46.004Z,17.60
2019-03-06T22:55:25.570Z,11.63
2019-03-06T23:01:17.696Z,12.23
2019-03-06T23:03:51.333Z,14.23
2019-03-06T23:06:30.435Z,13.47
2019-03-06T23:15:12.012Z,12.43
2019-03-06T23:17:45.763Z,13.87
2019-03-06T23:20:18.427Z,18.70
2019-03-06T23:23:01.057Z,20.73
2019-03-06T23:25:38.810Z,34.90
2019-03-06T23:28:31.435Z,32.00
2019-03-06T23:31:07.338Z,27.27
2019-03-06T23:33:55.090Z,28.40
2019-03-06T23:36:36.984Z,27.90
2019-03-06T23:42:18.110Z,24.77
2019-03-06T23:44:58.191Z,22.33
2019-03-06T23:47:38.818Z,17.67
2019-03-06T23:50:19.056Z,18.77
2019-03-06T23:53:18.750Z,23.07
2019-03-06T23:55:51.767Z,20.97
2019-03-06T23:58:27.814Z,21.57
